ftp/pub/mcmurdo/arrivalheights/2008/March/080331.txt

Download

3/31/08
Time         Wind Dir   Wind Spd  Wind Gust     Hum In   Humidity    Temp In       Temp  Raw Barom   Tot Rain
                    °        kts        kts          %          %         °C         °C         mb         mm
0:00                1          1          3         22        100       19.6      -23.1     982.36       0.00
0:20                1          0          0         26        100       19.6      -23.2     982.47       0.00
0:40               15          3          3         30        100       19.6      -23.9     982.47       0.00
1:00               11          0          1         31        100       19.5      -23.8     982.67       0.00
1:20                8          2          3         28        100       19.7      -22.9     982.74       0.00
1:40                7          3          4         24        100       19.9      -23.6     982.74       0.00
2:00              339          4          4         22        100       20.1      -21.9     982.94       0.00
2:20                7          4          6         28        100       19.9      -24.3     982.84       0.00
2:40              352          6          7         31        100       19.8      -22.8     982.87       0.00
3:00              340         10         10         29        100       19.8      -23.4     982.94       0.00
3:20              356          8          9         25        100       19.9      -20.3     982.94       0.00
3:40               15          8         10         22        100       20.0      -23.6     983.04       0.00
4:00               14          9          9         28        100       19.8      -23.9     982.97       0.00
4:20               35         14         14         30        100       19.7      -23.3     982.97       0.00
4:40               40         14         17         31        100       19.7      -23.8     982.94       0.00
5:00               30         15         17         32        100       19.6      -25.0     982.87       0.00
5:20               37         19         19         25        100       19.8      -23.9     983.18       0.00
5:40               36         12         16         22        100       19.9      -24.7     983.31       0.00
6:00               36         18         19         28        100       19.8      -25.2     983.31       0.00
6:20               35         19         20         30        100       19.7      -24.8     983.31       0.00
6:40               31         14         17         31        100       19.7      -24.8     983.35       0.00
7:00               34         15         17         28        100       19.7      -24.3     983.38       0.00
7:20               36         12         15         23        100       19.9      -24.4     983.35       0.00
7:40               31         11         15         25        100       19.9      -24.4     983.45       0.00
8:00               34         12         16         29        100       19.8      -24.0     983.58       0.00
8:20               47         12         13         30        100       19.7      -23.6     983.55       0.00
8:40               46         14         15         31        100       19.5      -23.3     983.48       0.00
9:00               37         17         20         27        100       19.6      -23.9     983.55       0.00
9:20               39         17         19         22        100       19.7      -24.3     983.62       0.00
9:40               43         20         21         26        100       19.5      -24.2     983.41       0.00
10:00              40         19         21         28        100       19.3      -24.3     983.65       0.00
10:20              45         20         23         28        100       19.1      -24.8     983.62       0.00
10:40              48         16         17         29        100       18.9      -24.1     983.75       0.00
11:00              49         12         17         30        100       18.7      -23.7     983.82       0.00
11:20              49         17         18         31        100       18.6      -23.7     983.96       0.00
11:40              42         16         18         25        100       18.7      -23.3     984.06       0.00
12:00              40         19         20         21        100       18.8      -23.1     984.26       0.00
12:20              43         20         21         26        100       18.6      -23.7     984.23       0.00
12:40              43         18         19         28        100       18.5      -23.6     984.43       0.00
13:00              47         17         18         30        100       18.4      -23.4     984.53       0.00
13:20              35         13         18         28        100       18.4      -22.9     984.57       0.00
13:40              46         16         17         22        100       18.6      -22.5     984.57       0.00
14:00              36         13         17         23        100       18.6      -22.4     984.77       0.00
14:20              48         16         17         27        100       18.5      -22.1     984.77       0.00
14:40              44         15         17         29        100       18.4      -21.6     984.77       0.00
15:00              42         15         17         29        100       18.5      -21.9     984.94       0.00
15:20              43         13         16         23        100       18.7      -22.0     984.97       0.00
15:40              44         12         17         23        100       18.8      -22.1     985.21       0.00
16:00              46         14         16         27        100       18.7      -21.9     985.34       0.00
16:20              48         16         16         29        100       18.7      -22.3     985.34       0.00
16:40              46         12         16         30        100       18.7      -22.6     985.48       0.00
17:00              51         10         14         25        100       18.8      -23.0     985.65       0.00
17:20              64         10         15         22        100       19.1      -25.2     985.79       0.00
17:40              61         14         14         25        100       19.1      -25.8     985.75       0.00
18:00              51         10         13         28        100       18.9      -27.2     985.99       0.00
18:20              71         14         19         29        100       18.9      -27.2     985.95       0.00
18:40              83         23         23         30        100       18.8      -26.6     985.58       0.00
19:00              83         18         22         29        100       18.7      -27.6     985.55       0.00
19:20              64         17         26         29        100       18.5      -28.3     985.28       0.00
19:40              78         21         26         29        100       18.3      -27.5     985.62       0.00
20:00              84         18         24         29        100       18.2      -28.5     985.92       0.00
20:20              80         23         27         29        100       17.9      -28.2     985.65       0.00
20:40              52         12         16         29        100       17.8      -28.7     986.19       0.00
21:00              56         14         23         29        100       18.3      -28.3     985.89       0.00
21:20              58         20         20         28        100       18.3      -28.6     985.89       0.00
21:40              55         16         16         28        100       18.1      -28.7     986.06       0.00
22:00              75         27         27         28        100       17.9      -28.2     985.92       0.00
22:20              62         18         18         28        100       18.2      -28.1     986.02       0.00
22:40              54         14         17         28        100       18.5      -27.8     985.99       0.00
23:00              51         15         16         27        100       18.3      -27.4     986.12       0.00
23:20              53         17         17         28        100       18.1      -28.1     986.26       0.00
23:40              49         23         25         28        100       18.2      -27.1     985.99       0.00